sensor_id;sensor_type;location;lat;lon;timestamp;P1;durP1;ratioP1;P2;durP2;ratioP2
31464;SDS011;18089;47.428;15.006;2023-04-03T00:02:27;10.48;;;9.88;;
31464;SDS011;18089;47.428;15.006;2023-04-03T00:04:59;10.57;;;9.98;;
31464;SDS011;18089;47.428;15.006;2023-04-03T00:07:32;10.43;;;9.82;;
31464;SDS011;18089;47.428;15.006;2023-04-03T00:10:04;10.63;;;10.13;;
31464;SDS011;18089;47.428;15.006;2023-04-03T00:12:37;10.10;;;9.60;;
31464;SDS011;18089;47.428;15.006;2023-04-03T00:15:10;10.40;;;9.83;;
31464;SDS011;18089;47.428;15.006;2023-04-03T00:17:42;10.10;;;9.50;;
31464;SDS011;18089;47.428;15.006;2023-04-03T00:20:18;11.23;;;10.63;;
31464;SDS011;18089;47.428;15.006;2023-04-03T00:22:50;10.75;;;10.23;;
31464;SDS011;18089;47.428;15.006;2023-04-03T00:25:22;10.40;;;9.90;;
31464;SDS011;18089;47.428;15.006;2023-04-03T00:27:54;9.57;;;8.98;;
31464;SDS011;18089;47.428;15.006;2023-04-03T00:30:28;11.35;;;10.75;;
31464;SDS011;18089;47.428;15.006;2023-04-03T00:33:00;11.15;;;10.20;;
31464;SDS011;18089;47.428;15.006;2023-04-03T00:35:33;12.30;;;11.63;;
31464;SDS011;18089;47.428;15.006;2023-04-03T00:38:05;10.80;;;10.10;;
31464;SDS011;18089;47.428;15.006;2023-04-03T00:40:38;11.35;;;10.70;;
31464;SDS011;18089;47.428;15.006;2023-04-03T00:43:14;10.50;;;9.90;;
31464;SDS011;18089;47.428;15.006;2023-04-03T00:45:49;10.70;;;10.10;;
31464;SDS011;18089;47.428;15.006;2023-04-03T00:48:22;10.10;;;9.60;;
31464;SDS011;18089;47.428;15.006;2023-04-03T00:50:57;11.43;;;10.83;;
31464;SDS011;18089;47.428;15.006;2023-04-03T00:53:31;11.07;;;10.47;;
31464;SDS011;18089;47.428;15.006;2023-04-03T00:56:08;10.80;;;10.20;;
31464;SDS011;18089;47.428;15.006;2023-04-03T00:58:43;11.93;;;11.23;;
31464;SDS011;18089;47.428;15.006;2023-04-03T01:01:20;10.27;;;9.67;;
31464;SDS011;18089;47.428;15.006;2023-04-03T01:03:54;11.37;;;10.77;;
31464;SDS011;18089;47.428;15.006;2023-04-03T01:06:27;10.60;;;10.00;;
31464;SDS011;18089;47.428;15.006;2023-04-03T01:09:02;11.10;;;10.50;;
31464;SDS011;18089;47.428;15.006;2023-04-03T01:11:36;11.53;;;10.93;;
31464;SDS011;18089;47.428;15.006;2023-04-03T01:14:08;11.63;;;10.83;;
31464;SDS011;18089;47.428;15.006;2023-04-03T01:16:41;11.67;;;10.97;;
31464;SDS011;18089;47.428;15.006;2023-04-03T01:19:14;11.67;;;10.97;;
31464;SDS011;18089;47.428;15.006;2023-04-03T01:24:37;11.80;;;11.10;;
31464;SDS011;18089;47.428;15.006;2023-04-03T01:27:10;12.03;;;11.33;;
31464;SDS011;18089;47.428;15.006;2023-04-03T01:29:42;11.23;;;10.63;;
31464;SDS011;18089;47.428;15.006;2023-04-03T01:32:16;11.30;;;10.70;;
31464;SDS011;18089;47.428;15.006;2023-04-03T01:34:48;11.20;;;10.50;;
31464;SDS011;18089;47.428;15.006;2023-04-03T01:37:20;11.57;;;10.87;;
31464;SDS011;18089;47.428;15.006;2023-04-03T01:39:52;11.80;;;11.10;;
31464;SDS011;18089;47.428;15.006;2023-04-03T01:42:24;11.53;;;10.83;;
31464;SDS011;18089;47.428;15.006;2023-04-03T01:44:56;10.87;;;10.17;;
31464;SDS011;18089;47.428;15.006;2023-04-03T01:47:29;11.77;;;11.07;;
31464;SDS011;18089;47.428;15.006;2023-04-03T01:50:02;12.03;;;11.33;;
31464;SDS011;18089;47.428;15.006;2023-04-03T01:52:34;11.47;;;10.77;;
31464;SDS011;18089;47.428;15.006;2023-04-03T01:55:06;10.33;;;9.80;;
31464;SDS011;18089;47.428;15.006;2023-04-03T01:57:39;12.13;;;11.33;;
31464;SDS011;18089;47.428;15.006;2023-04-03T02:00:11;11.10;;;10.50;;
31464;SDS011;18089;47.428;15.006;2023-04-03T02:02:45;11.53;;;10.93;;
31464;SDS011;18089;47.428;15.006;2023-04-03T02:05:17;12.43;;;11.83;;
31464;SDS011;18089;47.428;15.006;2023-04-03T02:07:49;11.93;;;11.23;;
31464;SDS011;18089;47.428;15.006;2023-04-03T02:10:22;11.50;;;10.90;;
31464;SDS011;18089;47.428;15.006;2023-04-03T02:12:54;11.50;;;10.83;;
31464;SDS011;18089;47.428;15.006;2023-04-03T02:15:26;10.90;;;10.30;;
31464;SDS011;18089;47.428;15.006;2023-04-03T02:17:59;11.07;;;10.47;;
31464;SDS011;18089;47.428;15.006;2023-04-03T02:20:31;10.70;;;10.10;;
31464;SDS011;18089;47.428;15.006;2023-04-03T02:23:03;11.00;;;10.40;;
31464;SDS011;18089;47.428;15.006;2023-04-03T02:25:35;11.40;;;10.80;;
31464;SDS011;18089;47.428;15.006;2023-04-03T02:28:08;12.57;;;11.57;;
31464;SDS011;18089;47.428;15.006;2023-04-03T02:30:40;11.10;;;10.50;;
31464;SDS011;18089;47.428;15.006;2023-04-03T02:33:13;11.47;;;10.87;;
31464;SDS011;18089;47.428;15.006;2023-04-03T02:35:45;12.37;;;11.50;;
31464;SDS011;18089;47.428;15.006;2023-04-03T02:38:23;12.07;;;11.37;;
31464;SDS011;18089;47.428;15.006;2023-04-03T02:40:59;12.67;;;12.07;;
31464;SDS011;18089;47.428;15.006;2023-04-03T02:43:32;12.43;;;11.70;;
31464;SDS011;18089;47.428;15.006;2023-04-03T02:46:04;12.13;;;11.33;;
31464;SDS011;18089;47.428;15.006;2023-04-03T02:48:38;11.70;;;11.00;;
31464;SDS011;18089;47.428;15.006;2023-04-03T02:51:10;11.00;;;10.40;;
31464;SDS011;18089;47.428;15.006;2023-04-03T02:53:42;11.13;;;10.53;;
31464;SDS011;18089;47.428;15.006;2023-04-03T02:56:14;11.13;;;10.53;;
31464;SDS011;18089;47.428;15.006;2023-04-03T02:58:47;11.47;;;10.80;;
31464;SDS011;18089;47.428;15.006;2023-04-03T03:01:19;11.47;;;10.77;;
31464;SDS011;18089;47.428;15.006;2023-04-03T03:03:52;11.53;;;10.83;;
31464;SDS011;18089;47.428;15.006;2023-04-03T03:06:24;11.73;;;11.03;;
31464;SDS011;18089;47.428;15.006;2023-04-03T03:08:57;12.00;;;11.30;;
31464;SDS011;18089;47.428;15.006;2023-04-03T03:11:29;11.37;;;10.73;;
31464;SDS011;18089;47.428;15.006;2023-04-03T03:14:01;11.50;;;10.80;;
31464;SDS011;18089;47.428;15.006;2023-04-03T03:16:33;11.23;;;10.53;;
31464;SDS011;18089;47.428;15.006;2023-04-03T03:19:06;11.40;;;10.77;;
31464;SDS011;18089;47.428;15.006;2023-04-03T03:21:38;11.27;;;10.67;;
31464;SDS011;18089;47.428;15.006;2023-04-03T03:24:10;11.97;;;11.13;;
31464;SDS011;18089;47.428;15.006;2023-04-03T03:26:43;11.80;;;11.10;;
31464;SDS011;18089;47.428;15.006;2023-04-03T03:29:15;11.80;;;11.10;;
31464;SDS011;18089;47.428;15.006;2023-04-03T03:31:47;11.53;;;10.90;;
31464;SDS011;18089;47.428;15.006;2023-04-03T03:34:20;11.90;;;11.20;;
31464;SDS011;18089;47.428;15.006;2023-04-03T03:36:52;11.73;;;11.10;;
31464;SDS011;18089;47.428;15.006;2023-04-03T03:39:25;11.30;;;10.70;;
31464;SDS011;18089;47.428;15.006;2023-04-03T03:41:57;11.17;;;10.60;;
31464;SDS011;18089;47.428;15.006;2023-04-03T03:44:29;11.30;;;10.70;;
31464;SDS011;18089;47.428;15.006;2023-04-03T03:47:01;12.17;;;11.47;;
31464;SDS011;18089;47.428;15.006;2023-04-03T03:49:37;12.30;;;11.60;;
31464;SDS011;18089;47.428;15.006;2023-04-03T03:52:09;11.13;;;10.53;;
31464;SDS011;18089;47.428;15.006;2023-04-03T03:54:41;11.30;;;10.60;;
31464;SDS011;18089;47.428;15.006;2023-04-03T03:57:13;11.37;;;10.77;;
31464;SDS011;18089;47.428;15.006;2023-04-03T03:59:45;12.00;;;11.40;;
31464;SDS011;18089;47.428;15.006;2023-04-03T04:02:18;10.73;;;10.13;;
31464;SDS011;18089;47.428;15.006;2023-04-03T04:04:52;11.93;;;11.23;;
31464;SDS011;18089;47.428;15.006;2023-04-03T04:07:24;11.77;;;11.17;;
31464;SDS011;18089;47.428;15.006;2023-04-03T04:09:58;11.80;;;11.20;;
31464;SDS011;18089;47.428;15.006;2023-04-03T04:12:30;11.00;;;10.50;;
31464;SDS011;18089;47.428;15.006;2023-04-03T04:15:02;11.60;;;11.00;;
31464;SDS011;18089;47.428;15.006;2023-04-03T04:17:34;10.80;;;10.20;;
31464;SDS011;18089;47.428;15.006;2023-04-03T04:20:08;10.67;;;10.07;;
31464;SDS011;18089;47.428;15.006;2023-04-03T04:22:41;10.80;;;10.20;;
31464;SDS011;18089;47.428;15.006;2023-04-03T04:25:13;11.40;;;10.80;;
31464;SDS011;18089;47.428;15.006;2023-04-03T04:27:46;11.23;;;10.70;;
31464;SDS011;18089;47.428;15.006;2023-04-03T04:30:18;11.50;;;10.80;;
31464;SDS011;18089;47.428;15.006;2023-04-03T04:32:50;10.80;;;10.20;;
31464;SDS011;18089;47.428;15.006;2023-04-03T04:35:23;11.37;;;10.80;;
31464;SDS011;18089;47.428;15.006;2023-04-03T04:37:55;11.47;;;10.87;;
31464;SDS011;18089;47.428;15.006;2023-04-03T04:40:27;11.83;;;11.23;;
31464;SDS011;18089;47.428;15.006;2023-04-03T04:42:59;11.60;;;11.00;;
31464;SDS011;18089;47.428;15.006;2023-04-03T04:45:31;12.03;;;11.33;;
31464;SDS011;18089;47.428;15.006;2023-04-03T04:48:03;11.77;;;11.07;;
31464;SDS011;18089;47.428;15.006;2023-04-03T04:50:37;10.43;;;9.93;;
31464;SDS011;18089;47.428;15.006;2023-04-03T04:53:09;12.53;;;11.73;;
31464;SDS011;18089;47.428;15.006;2023-04-03T04:55:41;11.00;;;10.37;;
31464;SDS011;18089;47.428;15.006;2023-04-03T04:58:13;10.93;;;10.37;;
31464;SDS011;18089;47.428;15.006;2023-04-03T05:00:45;11.33;;;10.63;;
31464;SDS011;18089;47.428;15.006;2023-04-03T05:03:17;11.43;;;10.83;;
31464;SDS011;18089;47.428;15.006;2023-04-03T05:05:51;11.73;;;11.03;;
31464;SDS011;18089;47.428;15.006;2023-04-03T05:08:23;12.67;;;11.93;;
31464;SDS011;18089;47.428;15.006;2023-04-03T05:10:55;11.20;;;10.60;;
31464;SDS011;18089;47.428;15.006;2023-04-03T05:13:27;12.40;;;11.63;;
31464;SDS011;18089;47.428;15.006;2023-04-03T05:15:59;11.73;;;11.13;;
31464;SDS011;18089;47.428;15.006;2023-04-03T05:18:31;11.67;;;11.03;;
31464;SDS011;18089;47.428;15.006;2023-04-03T05:21:04;11.47;;;10.80;;
31464;SDS011;18089;47.428;15.006;2023-04-03T05:23:36;11.40;;;10.80;;
31464;SDS011;18089;47.428;15.006;2023-04-03T05:26:08;11.07;;;10.30;;
31464;SDS011;18089;47.428;15.006;2023-04-03T05:28:40;11.80;;;11.07;;
31464;SDS011;18089;47.428;15.006;2023-04-03T05:31:12;11.67;;;11.07;;
31464;SDS011;18089;47.428;15.006;2023-04-03T05:33:45;11.60;;;10.80;;
31464;SDS011;18089;47.428;15.006;2023-04-03T05:36:18;10.90;;;10.30;;
31464;SDS011;18089;47.428;15.006;2023-04-03T05:38:50;11.30;;;10.70;;
31464;SDS011;18089;47.428;15.006;2023-04-03T05:41:23;11.40;;;10.80;;
31464;SDS011;18089;47.428;15.006;2023-04-03T05:43:55;10.53;;;9.93;;
31464;SDS011;18089;47.428;15.006;2023-04-03T05:46:27;11.43;;;10.83;;
31464;SDS011;18089;47.428;15.006;2023-04-03T05:49:00;10.90;;;10.10;;
31464;SDS011;18089;47.428;15.006;2023-04-03T05:51:34;12.20;;;11.50;;
31464;SDS011;18089;47.428;15.006;2023-04-03T05:54:09;11.53;;;10.70;;
31464;SDS011;18089;47.428;15.006;2023-04-03T05:56:42;11.60;;;10.80;;
31464;SDS011;18089;47.428;15.006;2023-04-03T05:59:14;10.80;;;10.20;;
31464;SDS011;18089;47.428;15.006;2023-04-03T06:01:47;10.80;;;10.30;;
31464;SDS011;18089;47.428;15.006;2023-04-03T06:04:19;11.10;;;10.50;;
31464;SDS011;18089;47.428;15.006;2023-04-03T06:06:53;10.40;;;9.80;;
31464;SDS011;18089;47.428;15.006;2023-04-03T06:09:27;10.37;;;9.77;;
31464;SDS011;18089;47.428;15.006;2023-04-03T06:12:00;11.03;;;10.23;;
31464;SDS011;18089;47.428;15.006;2023-04-03T06:14:32;11.10;;;9.83;;
31464;SDS011;18089;47.428;15.006;2023-04-03T06:17:04;10.63;;;9.80;;
31464;SDS011;18089;47.428;15.006;2023-04-03T06:19:36;10.37;;;9.77;;
31464;SDS011;18089;47.428;15.006;2023-04-03T06:22:09;10.80;;;10.20;;
31464;SDS011;18089;47.428;15.006;2023-04-03T06:24:42;10.40;;;9.90;;
31464;SDS011;18089;47.428;15.006;2023-04-03T06:27:14;10.53;;;10.03;;
31464;SDS011;18089;47.428;15.006;2023-04-03T06:29:46;10.33;;;9.73;;
31464;SDS011;18089;47.428;15.006;2023-04-03T06:32:19;10.27;;;9.77;;
31464;SDS011;18089;47.428;15.006;2023-04-03T06:34:51;11.10;;;10.50;;
31464;SDS011;18089;47.428;15.006;2023-04-03T06:37:25;10.45;;;9.77;;
31464;SDS011;18089;47.428;15.006;2023-04-03T06:39:58;13.50;;;12.48;;
31464;SDS011;18089;47.428;15.006;2023-04-03T06:42:31;13.63;;;12.52;;
31464;SDS011;18089;47.428;15.006;2023-04-03T06:45:03;14.50;;;13.20;;
31464;SDS011;18089;47.428;15.006;2023-04-03T06:47:37;11.93;;;11.23;;
31464;SDS011;18089;47.428;15.006;2023-04-03T06:50:10;10.67;;;10.00;;
31464;SDS011;18089;47.428;15.006;2023-04-03T06:52:45;11.17;;;10.53;;
31464;SDS011;18089;47.428;15.006;2023-04-03T06:55:17;13.50;;;12.40;;
31464;SDS011;18089;47.428;15.006;2023-04-03T06:57:49;10.27;;;9.68;;
31464;SDS011;18089;47.428;15.006;2023-04-03T07:00:21;10.90;;;10.30;;
31464;SDS011;18089;47.428;15.006;2023-04-03T07:02:54;10.20;;;9.60;;
31464;SDS011;18089;47.428;15.006;2023-04-03T07:05:27;10.40;;;9.80;;
31464;SDS011;18089;47.428;15.006;2023-04-03T07:08:01;10.63;;;10.10;;
31464;SDS011;18089;47.428;15.006;2023-04-03T07:10:33;10.60;;;10.00;;
31464;SDS011;18089;47.428;15.006;2023-04-03T07:13:05;11.00;;;10.40;;
31464;SDS011;18089;47.428;15.006;2023-04-03T07:15:37;10.47;;;9.97;;
31464;SDS011;18089;47.428;15.006;2023-04-03T07:18:09;10.77;;;10.17;;
31464;SDS011;18089;47.428;15.006;2023-04-03T07:20:41;10.70;;;10.10;;
31464;SDS011;18089;47.428;15.006;2023-04-03T07:23:14;11.17;;;10.27;;
31464;SDS011;18089;47.428;15.006;2023-04-03T07:25:47;10.80;;;10.20;;
31464;SDS011;18089;47.428;15.006;2023-04-03T07:28:21;10.93;;;10.33;;
31464;SDS011;18089;47.428;15.006;2023-04-03T07:30:58;10.68;;;10.18;;
31464;SDS011;18089;47.428;15.006;2023-04-03T07:33:31;10.77;;;10.07;;
31464;SDS011;18089;47.428;15.006;2023-04-03T07:36:04;10.87;;;10.37;;
31464;SDS011;18089;47.428;15.006;2023-04-03T07:38:39;10.35;;;9.75;;
31464;SDS011;18089;47.428;15.006;2023-04-03T07:41:11;10.33;;;9.83;;
31464;SDS011;18089;47.428;15.006;2023-04-03T07:43:45;10.68;;;10.07;;
31464;SDS011;18089;47.428;15.006;2023-04-03T07:46:19;9.98;;;9.48;;
31464;SDS011;18089;47.428;15.006;2023-04-03T07:48:52;10.68;;;10.05;;
31464;SDS011;18089;47.428;15.006;2023-04-03T07:51:24;10.90;;;10.30;;
31464;SDS011;18089;47.428;15.006;2023-04-03T07:53:57;9.90;;;9.40;;
31464;SDS011;18089;47.428;15.006;2023-04-03T07:56:29;9.85;;;9.35;;
31464;SDS011;18089;47.428;15.006;2023-04-03T07:59:02;9.25;;;8.75;;
31464;SDS011;18089;47.428;15.006;2023-04-03T08:01:34;9.05;;;8.63;;
31464;SDS011;18089;47.428;15.006;2023-04-03T08:04:06;9.35;;;8.82;;
31464;SDS011;18089;47.428;15.006;2023-04-03T08:06:38;10.68;;;10.02;;
31464;SDS011;18089;47.428;15.006;2023-04-03T08:09:11;9.98;;;9.35;;
31464;SDS011;18089;47.428;15.006;2023-04-03T08:11:44;9.23;;;8.63;;
31464;SDS011;18089;47.428;15.006;2023-04-03T08:14:16;8.82;;;8.40;;
31464;SDS011;18089;47.428;15.006;2023-04-03T08:16:48;9.63;;;9.13;;
31464;SDS011;18089;47.428;15.006;2023-04-03T08:19:20;9.43;;;8.82;;
31464;SDS011;18089;47.428;15.006;2023-04-03T08:21:53;9.70;;;9.20;;
31464;SDS011;18089;47.428;15.006;2023-04-03T08:24:28;9.93;;;9.43;;
31464;SDS011;18089;47.428;15.006;2023-04-03T08:27:00;9.20;;;8.70;;
31464;SDS011;18089;47.428;15.006;2023-04-03T08:29:32;9.30;;;8.70;;
31464;SDS011;18089;47.428;15.006;2023-04-03T08:32:04;9.55;;;9.05;;
31464;SDS011;18089;47.428;15.006;2023-04-03T08:34:36;9.55;;;8.95;;
31464;SDS011;18089;47.428;15.006;2023-04-03T08:37:09;9.18;;;8.57;;
31464;SDS011;18089;47.428;15.006;2023-04-03T08:39:42;8.93;;;8.45;;
31464;SDS011;18089;47.428;15.006;2023-04-03T08:42:16;9.27;;;8.50;;
31464;SDS011;18089;47.428;15.006;2023-04-03T08:45:05;9.15;;;8.65;;
31464;SDS011;18089;47.428;15.006;2023-04-03T08:47:40;8.90;;;8.40;;
31464;SDS011;18089;47.428;15.006;2023-04-03T08:50:16;9.02;;;8.52;;
31464;SDS011;18089;47.428;15.006;2023-04-03T08:52:51;9.02;;;8.50;;
31464;SDS011;18089;47.428;15.006;2023-04-03T08:55:27;8.90;;;8.40;;
31464;SDS011;18089;47.428;15.006;2023-04-03T08:58:01;9.05;;;8.55;;
31464;SDS011;18089;47.428;15.006;2023-04-03T09:00:37;8.95;;;8.45;;
31464;SDS011;18089;47.428;15.006;2023-04-03T09:03:16;9.13;;;8.63;;
31464;SDS011;18089;47.428;15.006;2023-04-03T09:05:50;8.45;;;8.05;;
31464;SDS011;18089;47.428;15.006;2023-04-03T09:08:26;9.00;;;8.50;;
31464;SDS011;18089;47.428;15.006;2023-04-03T09:11:03;9.18;;;8.65;;
31464;SDS011;18089;47.428;15.006;2023-04-03T09:13:42;9.30;;;8.70;;
31464;SDS011;18089;47.428;15.006;2023-04-03T09:16:26;9.05;;;8.55;;
31464;SDS011;18089;47.428;15.006;2023-04-03T09:19:06;9.90;;;9.30;;
31464;SDS011;18089;47.428;15.006;2023-04-03T09:21:43;9.55;;;8.70;;
31464;SDS011;18089;47.428;15.006;2023-04-03T09:24:15;8.95;;;8.38;;
31464;SDS011;18089;47.428;15.006;2023-04-03T09:26:51;9.20;;;8.60;;
31464;SDS011;18089;47.428;15.006;2023-04-03T09:29:25;8.80;;;8.30;;
31464;SDS011;18089;47.428;15.006;2023-04-03T09:31:58;10.55;;;9.95;;
31464;SDS011;18089;47.428;15.006;2023-04-03T09:34:32;9.00;;;8.50;;
31464;SDS011;18089;47.428;15.006;2023-04-03T09:37:07;9.43;;;8.82;;
31464;SDS011;18089;47.428;15.006;2023-04-03T09:39:49;10.70;;;9.90;;
31464;SDS011;18089;47.428;15.006;2023-04-03T09:42:24;10.90;;;10.02;;
31464;SDS011;18089;47.428;15.006;2023-04-03T09:44:58;12.05;;;10.80;;
31464;SDS011;18089;47.428;15.006;2023-04-03T09:47:31;12.25;;;11.15;;
31464;SDS011;18089;47.428;15.006;2023-04-03T09:50:10;9.73;;;9.02;;
31464;SDS011;18089;47.428;15.006;2023-04-03T09:52:51;10.15;;;9.38;;
31464;SDS011;18089;47.428;15.006;2023-04-03T09:55:23;9.60;;;8.77;;
31464;SDS011;18089;47.428;15.006;2023-04-03T09:58:01;10.27;;;9.57;;
31464;SDS011;18089;47.428;15.006;2023-04-03T10:00:35;10.02;;;9.43;;
31464;SDS011;18089;47.428;15.006;2023-04-03T10:03:20;9.77;;;9.07;;
31464;SDS011;18089;47.428;15.006;2023-04-03T10:05:55;9.65;;;9.05;;
31464;SDS011;18089;47.428;15.006;2023-04-03T10:08:29;9.25;;;8.75;;
31464;SDS011;18089;47.428;15.006;2023-04-03T10:11:05;9.77;;;9.18;;
31464;SDS011;18089;47.428;15.006;2023-04-03T10:13:50;9.98;;;9.38;;
31464;SDS011;18089;47.428;15.006;2023-04-03T10:16:25;9.80;;;9.20;;
31464;SDS011;18089;47.428;15.006;2023-04-03T10:19:03;9.90;;;9.30;;
31464;SDS011;18089;47.428;15.006;2023-04-03T10:21:55;10.25;;;9.65;;
31464;SDS011;18089;47.428;15.006;2023-04-03T10:24:33;9.93;;;9.23;;
31464;SDS011;18089;47.428;15.006;2023-04-03T10:27:08;9.57;;;8.98;;
31464;SDS011;18089;47.428;15.006;2023-04-03T10:29:45;9.40;;;8.73;;
31464;SDS011;18089;47.428;15.006;2023-04-03T10:32:29;9.52;;;8.82;;
31464;SDS011;18089;47.428;15.006;2023-04-03T10:35:25;9.02;;;8.52;;
31464;SDS011;18089;47.428;15.006;2023-04-03T10:38:04;8.57;;;8.07;;
31464;SDS011;18089;47.428;15.006;2023-04-03T10:40:45;9.50;;;8.90;;
31464;SDS011;18089;47.428;15.006;2023-04-03T10:43:23;9.18;;;8.57;;
31464;SDS011;18089;47.428;15.006;2023-04-03T10:46:03;8.07;;;7.57;;
31464;SDS011;18089;47.428;15.006;2023-04-03T10:48:43;9.02;;;8.45;;
31464;SDS011;18089;47.428;15.006;2023-04-03T10:51:23;8.95;;;8.35;;
31464;SDS011;18089;47.428;15.006;2023-04-03T10:54:00;11.48;;;10.40;;
31464;SDS011;18089;47.428;15.006;2023-04-03T10:56:37;9.48;;;8.80;;
31464;SDS011;18089;47.428;15.006;2023-04-03T10:59:23;9.45;;;8.55;;
31464;SDS011;18089;47.428;15.006;2023-04-03T11:02:00;9.80;;;9.10;;
31464;SDS011;18089;47.428;15.006;2023-04-03T11:04:36;9.73;;;8.93;;
31464;SDS011;18089;47.428;15.006;2023-04-03T11:07:11;9.30;;;8.45;;
31464;SDS011;18089;47.428;15.006;2023-04-03T11:09:47;8.57;;;8.10;;
31464;SDS011;18089;47.428;15.006;2023-04-03T11:12:23;9.40;;;8.80;;
31464;SDS011;18089;47.428;15.006;2023-04-03T11:14:58;8.73;;;8.10;;
31464;SDS011;18089;47.428;15.006;2023-04-03T11:17:33;9.45;;;8.93;;
31464;SDS011;18089;47.428;15.006;2023-04-03T11:20:09;9.20;;;8.60;;
31464;SDS011;18089;47.428;15.006;2023-04-03T11:22:47;10.18;;;9.32;;
31464;SDS011;18089;47.428;15.006;2023-04-03T11:25:22;9.10;;;8.60;;
31464;SDS011;18089;47.428;15.006;2023-04-03T11:27:55;9.93;;;9.05;;
31464;SDS011;18089;47.428;15.006;2023-04-03T11:30:30;9.30;;;8.65;;
31464;SDS011;18089;47.428;15.006;2023-04-03T11:33:19;11.18;;;10.15;;
31464;SDS011;18089;47.428;15.006;2023-04-03T11:35:53;9.20;;;8.60;;
31464;SDS011;18089;47.428;15.006;2023-04-03T11:38:29;10.55;;;9.65;;
31464;SDS011;18089;47.428;15.006;2023-04-03T11:41:06;10.10;;;9.35;;
31464;SDS011;18089;47.428;15.006;2023-04-03T11:43:41;9.55;;;8.85;;
31464;SDS011;18089;47.428;15.006;2023-04-03T11:46:15;9.93;;;9.32;;
31464;SDS011;18089;47.428;15.006;2023-04-03T11:48:51;9.15;;;8.45;;
31464;SDS011;18089;47.428;15.006;2023-04-03T12:00:52;7.53;;;6.93;;
31464;SDS011;18089;47.428;15.006;2023-04-03T12:12:57;7.82;;;7.30;;
31464;SDS011;18089;47.428;15.006;2023-04-03T12:24:54;8.30;;;7.82;;
31464;SDS011;18089;47.428;15.006;2023-04-03T12:27:27;7.72;;;7.22;;
31464;SDS011;18089;47.428;15.006;2023-04-03T12:30:13;7.30;;;7.00;;
31464;SDS011;18089;47.428;15.006;2023-04-03T12:32:51;8.05;;;7.40;;
31464;SDS011;18089;47.428;15.006;2023-04-03T12:35:34;8.90;;;8.40;;
31464;SDS011;18089;47.428;15.006;2023-04-03T12:38:17;8.88;;;8.20;;
31464;SDS011;18089;47.428;15.006;2023-04-03T12:41:10;9.30;;;8.70;;
31464;SDS011;18089;47.428;15.006;2023-04-03T12:43:59;8.60;;;8.10;;
31464;SDS011;18089;47.428;15.006;2023-04-03T12:46:38;8.48;;;7.97;;
31464;SDS011;18089;47.428;15.006;2023-04-03T12:49:18;8.32;;;7.82;;
31464;SDS011;18089;47.428;15.006;2023-04-03T12:51:58;8.25;;;7.65;;
31464;SDS011;18089;47.428;15.006;2023-04-03T12:54:31;8.02;;;7.53;;
31464;SDS011;18089;47.428;15.006;2023-04-03T12:57:11;8.20;;;7.55;;
31464;SDS011;18089;47.428;15.006;2023-04-03T12:59:44;8.30;;;7.80;;
31464;SDS011;18089;47.428;15.006;2023-04-03T13:02:21;7.75;;;7.13;;
31464;SDS011;18089;47.428;15.006;2023-04-03T13:04:55;6.38;;;5.90;;
31464;SDS011;18089;47.428;15.006;2023-04-03T13:07:30;5.82;;;5.43;;
31464;SDS011;18089;47.428;15.006;2023-04-03T13:10:10;5.80;;;5.40;;
31464;SDS011;18089;47.428;15.006;2023-04-03T13:12:49;6.70;;;6.00;;
31464;SDS011;18089;47.428;15.006;2023-04-03T13:15:23;10.50;;;9.45;;
31464;SDS011;18089;47.428;15.006;2023-04-03T13:17:56;8.10;;;7.40;;
31464;SDS011;18089;47.428;15.006;2023-04-03T13:20:29;7.28;;;6.68;;
31464;SDS011;18089;47.428;15.006;2023-04-03T13:23:02;7.03;;;6.53;;
31464;SDS011;18089;47.428;15.006;2023-04-03T13:25:37;7.07;;;6.47;;
31464;SDS011;18089;47.428;15.006;2023-04-03T13:28:15;8.70;;;7.50;;
31464;SDS011;18089;47.428;15.006;2023-04-03T13:30:56;5.90;;;5.50;;
31464;SDS011;18089;47.428;15.006;2023-04-03T13:33:33;5.80;;;5.30;;
31464;SDS011;18089;47.428;15.006;2023-04-03T13:36:08;5.90;;;5.35;;
31464;SDS011;18089;47.428;15.006;2023-04-03T13:38:57;6.53;;;5.93;;
31464;SDS011;18089;47.428;15.006;2023-04-03T13:41:30;6.05;;;5.45;;
31464;SDS011;18089;47.428;15.006;2023-04-03T13:47:00;4.63;;;4.38;;
31464;SDS011;18089;47.428;15.006;2023-04-03T13:49:34;5.68;;;5.28;;
31464;SDS011;18089;47.428;15.006;2023-04-03T13:52:22;6.25;;;5.72;;
31464;SDS011;18089;47.428;15.006;2023-04-03T13:54:58;6.60;;;5.80;;
31464;SDS011;18089;47.428;15.006;2023-04-03T13:57:31;6.03;;;5.63;;
31464;SDS011;18089;47.428;15.006;2023-04-03T14:02:54;5.80;;;5.50;;
31464;SDS011;18089;47.428;15.006;2023-04-03T14:05:27;8.27;;;7.57;;
31464;SDS011;18089;47.428;15.006;2023-04-03T14:07:59;7.75;;;7.05;;
31464;SDS011;18089;47.428;15.006;2023-04-03T14:10:32;6.72;;;6.20;;
31464;SDS011;18089;47.428;15.006;2023-04-03T14:13:04;6.82;;;6.43;;
31464;SDS011;18089;47.428;15.006;2023-04-03T14:15:38;7.53;;;7.00;;
31464;SDS011;18089;47.428;15.006;2023-04-03T14:18:11;7.68;;;7.07;;
31464;SDS011;18089;47.428;15.006;2023-04-03T14:20:47;8.20;;;7.55;;
31464;SDS011;18089;47.428;15.006;2023-04-03T14:23:19;6.00;;;5.60;;
31464;SDS011;18089;47.428;15.006;2023-04-03T14:25:51;6.10;;;5.60;;
31464;SDS011;18089;47.428;15.006;2023-04-03T14:28:23;5.82;;;5.43;;
31464;SDS011;18089;47.428;15.006;2023-04-03T14:30:57;6.35;;;5.95;;
31464;SDS011;18089;47.428;15.006;2023-04-03T14:33:29;7.65;;;6.18;;
31464;SDS011;18089;47.428;15.006;2023-04-03T14:36:09;6.50;;;5.90;;
31464;SDS011;18089;47.428;15.006;2023-04-03T14:38:44;6.68;;;6.28;;
31464;SDS011;18089;47.428;15.006;2023-04-03T14:41:17;6.72;;;6.32;;
31464;SDS011;18089;47.428;15.006;2023-04-03T14:43:50;6.90;;;6.38;;
31464;SDS011;18089;47.428;15.006;2023-04-03T14:46:26;6.90;;;6.50;;
31464;SDS011;18089;47.428;15.006;2023-04-03T14:48:59;7.40;;;7.00;;
31464;SDS011;18089;47.428;15.006;2023-04-03T14:51:32;8.88;;;8.38;;
31464;SDS011;18089;47.428;15.006;2023-04-03T14:54:05;8.30;;;7.80;;
31464;SDS011;18089;47.428;15.006;2023-04-03T14:56:38;8.60;;;8.10;;
31464;SDS011;18089;47.428;15.006;2023-04-03T14:59:11;9.55;;;8.95;;
31464;SDS011;18089;47.428;15.006;2023-04-03T15:01:45;10.10;;;9.40;;
31464;SDS011;18089;47.428;15.006;2023-04-03T15:04:18;9.35;;;8.80;;
31464;SDS011;18089;47.428;15.006;2023-04-03T15:06:51;9.70;;;9.10;;
31464;SDS011;18089;47.428;15.006;2023-04-03T15:09:24;10.40;;;9.65;;
31464;SDS011;18089;47.428;15.006;2023-04-03T15:11:59;10.30;;;9.70;;
31464;SDS011;18089;47.428;15.006;2023-04-03T15:14:31;10.98;;;10.27;;
31464;SDS011;18089;47.428;15.006;2023-04-03T15:17:04;11.60;;;10.70;;
31464;SDS011;18089;47.428;15.006;2023-04-03T15:19:37;11.05;;;10.25;;
31464;SDS011;18089;47.428;15.006;2023-04-03T15:22:11;11.35;;;10.70;;
31464;SDS011;18089;47.428;15.006;2023-04-03T15:24:45;11.48;;;10.68;;
31464;SDS011;18089;47.428;15.006;2023-04-03T15:27:17;10.95;;;10.25;;
31464;SDS011;18089;47.428;15.006;2023-04-03T15:29:49;10.82;;;10.13;;
31464;SDS011;18089;47.428;15.006;2023-04-03T15:32:23;19.15;;;17.10;;
31464;SDS011;18089;47.428;15.006;2023-04-03T15:34:55;10.38;;;9.70;;
31464;SDS011;18089;47.428;15.006;2023-04-03T15:37:27;25.05;;;19.80;;
31464;SDS011;18089;47.428;15.006;2023-04-03T15:39:58;18.83;;;13.57;;